Time;durP1;ratioP1;P1;durP2;ratioP2;P2;SDS_P1;SDS_P2;PMS_P1;PMS_P2;Temp;Humidity;BMP_temperature;BMP_pressure;BME280_temperature;BME280_humidity;BME280_pressure;Samples;Min_cycle;Max_cycle;Signal;HPM_P1;HPM_P2
2022/03/08 00:01:33;;;;;;;28.88;18.20;;;;;;;4.12;100.00;101217.53;4958472;29;20042;-74
2022/03/08 00:04:19;;;;;;;27.48;17.30;;;;;;;4.03;100.00;101216.47;4958303;28;20464;-75
2022/03/08 00:07:05;;;;;;;29.73;17.98;;;;;;;3.97;100.00;101221.56;4956819;29;20361;-74
2022/03/08 00:09:51;;;;;;;29.67;17.23;;;;;;;3.87;100.00;101211.88;4957854;29;20033;-74
2022/03/08 00:12:37;;;;;;;24.45;15.43;;;;;;;3.79;100.00;101213.47;4943094;28;20114;-75
2022/03/08 00:15:25;;;;;;;26.83;16.42;;;;;;;4.23;100.00;101213.34;4945012;28;20039;-74
2022/03/08 00:18:10;;;;;;;25.15;15.30;;;;;;;4.11;100.00;101197.59;4956890;29;20372;-74
2022/03/08 00:20:56;;;;;;;31.70;18.45;;;;;;;3.55;100.00;101202.69;4956668;29;20035;-74
2022/03/08 00:23:42;;;;;;;25.17;15.63;;;;;;;3.41;100.00;101201.53;4942921;29;20047;-74
2022/03/08 00:27:05;;;;;;;28.58;16.63;;;;;;;3.67;100.00;101198.59;4956895;29;20026;-75
2022/03/08 00:29:51;;;;;;;26.33;16.67;;;;;;;3.19;100.00;101196.78;4957006;29;20106;-75
2022/03/08 00:32:37;;;;;;;27.00;15.77;;;;;;;3.39;100.00;101198.94;4957378;28;20098;-75
2022/03/08 00:35:23;;;;;;;27.15;17.15;;;;;;;3.28;100.00;101196.97;4956173;29;20039;-74
2022/03/08 00:38:09;;;;;;;26.15;16.58;;;;;;;3.06;100.00;101192.22;4957943;28;20093;-74
2022/03/08 00:40:55;;;;;;;28.42;17.42;;;;;;;3.44;100.00;101199.88;4955946;29;20117;-74
2022/03/08 00:43:41;;;;;;;30.17;18.30;;;;;;;3.24;100.00;101195.16;4943679;29;20035;-75
2022/03/08 00:46:27;;;;;;;34.10;19.95;;;;;;;3.30;100.00;101196.16;4941581;29;20102;-73
2022/03/08 00:49:12;;;;;;;32.90;20.33;;;;;;;3.43;100.00;101192.09;4956051;29;20034;-75
2022/03/08 00:51:58;;;;;;;36.17;20.92;;;;;;;3.19;100.00;101189.03;4956116;29;20055;-73
2022/03/08 00:54:44;;;;;;;34.75;20.15;;;;;;;3.50;100.00;101189.63;4942156;29;20098;-74
2022/03/08 00:57:30;;;;;;;34.90;20.77;;;;;;;3.64;100.00;101179.50;4955905;29;20031;-74
2022/03/08 01:00:19;;;;;;;37.53;22.35;;;;;;;3.33;100.00;101185.84;4942282;29;20067;-74
2022/03/08 01:03:05;;;;;;;35.17;20.58;;;;;;;3.64;100.00;101188.16;4956776;28;20043;-74
2022/03/08 01:05:51;;;;;;;37.28;22.27;;;;;;;3.30;100.00;101184.94;4955500;29;20027;-74
2022/03/08 01:08:37;;;;;;;37.40;22.08;;;;;;;3.81;100.00;101181.56;4956198;29;20038;-75
2022/03/08 01:11:23;;;;;;;32.88;19.70;;;;;;;3.29;100.00;101186.63;4956382;29;20034;-74
2022/03/08 01:14:09;;;;;;;30.80;18.65;;;;;;;3.45;100.00;101180.03;4956371;28;20069;-75
2022/03/08 01:16:55;;;;;;;28.80;18.42;;;;;;;3.27;100.00;101180.56;4956775;29;20110;-75
2022/03/08 01:19:41;;;;;;;28.55;16.73;;;;;;;3.26;100.00;101178.81;4956197;29;20038;-75
2022/03/08 01:22:26;;;;;;;27.95;17.35;;;;;;;3.81;100.00;101178.06;4955661;28;20035;-74
2022/03/08 01:25:14;;;;;;;27.25;16.63;;;;;;;4.06;100.00;101181.09;4941506;29;20033;-74
2022/03/08 01:28:00;;;;;;;28.98;17.77;;;;;;;3.89;100.00;101177.38;4956270;29;20034;-74
2022/03/08 01:30:46;;;;;;;27.42;17.92;;;;;;;3.49;100.00;101182.72;4955367;29;20090;-73
2022/03/08 01:33:32;;;;;;;30.70;18.65;;;;;;;3.74;100.00;101184.03;4942083;29;20032;-73
2022/03/08 01:36:18;;;;;;;23.90;15.18;;;;;;;3.53;100.00;101184.50;4954921;29;20034;-75
2022/03/08 01:39:04;;;;;;;22.45;15.23;;;;;;;3.34;100.00;101176.38;4941573;29;20487;-74
2022/03/08 01:41:50;;;;;;;22.38;14.43;;;;;;;3.37;100.00;101176.41;4956231;29;20043;-74
2022/03/08 01:44:35;;;;;;;23.85;14.70;;;;;;;3.75;100.00;101181.47;4955780;29;20031;-74
2022/03/08 04:01:10;;;;;;;37.60;21.25;;;;;;;3.21;100.00;101211.50;5153058;23;20449;-75
2022/03/08 04:03:56;;;;;;;38.08;21.48;;;;;;;3.50;100.00;101204.31;4958654;28;20361;-74
2022/03/08 04:06:42;;;;;;;37.13;21.05;;;;;;;3.90;100.00;101207.63;4958391;29;20441;-74
2022/03/08 04:09:28;;;;;;;37.88;21.35;;;;;;;3.70;100.00;101211.59;4944017;29;20035;-74
2022/03/08 04:12:14;;;;;;;39.13;21.15;;;;;;;3.16;100.00;101204.50;4957550;28;20114;-73
2022/03/08 04:15:00;;;;;;;38.63;21.45;;;;;;;3.17;100.00;101208.84;4957721;29;20020;-74
2022/03/08 04:17:46;;;;;;;34.35;19.90;;;;;;;2.86;100.00;101204.72;4957682;29;20436;-75
2022/03/08 04:20:32;;;;;;;37.50;21.27;;;;;;;2.79;100.00;101215.81;4958958;28;20035;-74
2022/03/08 04:23:18;;;;;;;33.42;18.85;;;;;;;2.49;100.00;101220.28;4958388;28;20043;-75
2022/03/08 04:26:04;;;;;;;33.33;18.92;;;;;;;2.43;100.00;101222.75;4959043;28;20042;-76
2022/03/08 05:53:53;;;;;;;75.13;40.47;;;;;;;1.57;100.00;101268.75;5917611;23;20027;-73
2022/03/08 05:56:38;;;;;;;72.40;39.90;;;;;;;1.49;100.00;101275.44;4887051;29;20048;-73
2022/03/08 05:59:24;;;;;;;82.05;42.45;;;;;;;1.45;100.00;101283.91;4886834;29;20046;-76
2022/03/08 06:02:11;;;;;;;80.38;41.72;;;;;;;1.38;100.00;101278.56;4886198;29;20029;-73
2022/03/08 06:04:57;;;;;;;77.13;41.17;;;;;;;1.60;100.00;101275.75;4867378;29;20434;-73
2022/03/08 06:08:00;;;;;;;83.18;43.60;;;;;;;1.38;100.00;101288.88;4881110;29;20041;-72
2022/03/08 06:11:20;;;;;;;80.63;41.50;;;;;;;1.41;100.00;101291.56;4889039;29;20093;-74
2022/03/08 06:14:06;;;;;;;81.00;41.63;;;;;;;1.34;100.00;101295.66;4880829;29;20033;-73
2022/03/08 06:16:52;;;;;;;76.35;40.38;;;;;;;1.42;100.00;101291.59;4882342;29;20036;-74
2022/03/08 06:19:37;;;;;;;75.32;40.33;;;;;;;1.38;100.00;101301.78;4881210;29;20375;-74
2022/03/08 06:22:23;;;;;;;78.28;39.33;;;;;;;1.57;100.00;101302.34;4882218;29;20029;-75
2022/03/08 06:25:10;;;;;;;73.85;39.28;;;;;;;1.58;100.00;101298.94;4868692;29;20029;-76
2022/03/08 06:27:55;;;;;;;77.03;41.35;;;;;;;1.34;100.00;101305.09;4881856;29;20137;-75
2022/03/08 06:30:41;;;;;;;75.32;39.40;;;;;;;1.48;100.00;101301.22;4881736;29;20455;-73
2022/03/08 06:33:27;;;;;;;73.68;40.15;;;;;;;1.40;100.00;101306.16;4880910;29;20453;-74
2022/03/08 06:36:13;;;;;;;73.00;38.92;;;;;;;1.36;100.00;101306.03;4881823;29;20033;-75
2022/03/08 06:38:58;;;;;;;77.90;39.50;;;;;;;1.46;100.00;101303.75;4880863;29;20068;-72
2022/03/08 06:41:44;;;;;;;76.60;40.38;;;;;;;1.49;100.00;101311.56;4880234;29;20036;-73
2022/03/08 06:44:31;;;;;;;89.72;47.97;;;;;;;1.56;100.00;101299.75;4882632;29;20037;-74
2022/03/08 06:47:17;;;;;;;82.53;44.75;;;;;;;2.10;100.00;101306.34;4885584;29;20044;-75
2022/03/08 06:50:03;;;;;;;79.90;41.00;;;;;;;1.59;100.00;101304.97;4884325;29;20032;-74
2022/03/08 06:52:50;;;;;;;74.13;41.00;;;;;;;1.68;100.00;101300.06;4885511;29;20097;-74
2022/03/08 06:55:36;;;;;;;78.78;41.83;;;;;;;1.82;100.00;101307.34;4885031;29;20363;-73
2022/03/08 06:58:21;;;;;;;82.97;45.08;;;;;;;2.01;100.00;101313.88;4884169;29;20029;-74
2022/03/08 07:01:07;;;;;;;100.30;52.53;;;;;;;2.20;100.00;101309.22;4884747;29;20025;-74
2022/03/08 07:03:53;;;;;;;86.47;43.75;;;;;;;2.09;100.00;101315.81;4884944;29;20033;-73
2022/03/08 07:06:40;;;;;;;77.38;41.30;;;;;;;1.98;100.00;101312.09;4884075;29;20035;-73
2022/03/08 07:09:25;;;;;;;76.10;40.22;;;;;;;2.21;100.00;101316.13;4885400;29;20142;-74
2022/03/08 07:14:46;;;;;;;79.85;41.38;;;;;;;2.00;100.00;101309.53;5136529;23;20060;-75
2022/03/08 07:17:32;;;;;;;72.13;36.97;;;;;;;1.85;100.00;101315.16;4921464;29;20051;-75
2022/03/08 07:20:18;;;;;;;77.85;39.03;;;;;;;1.95;100.00;101313.69;4921441;29;20043;-75
2022/03/08 07:23:04;;;;;;;79.32;41.13;;;;;;;2.24;100.00;101313.63;4900983;29;20036;-75
2022/03/08 07:25:50;;;;;;;79.90;39.88;;;;;;;2.38;100.00;101319.16;4902394;29;20104;-74
2022/03/08 07:28:36;;;;;;;75.28;40.10;;;;;;;3.12;100.00;101327.81;4902721;29;20112;-75
2022/03/08 07:31:21;;;;;;;78.50;41.30;;;;;;;2.43;100.00;101322.72;4903323;29;20457;-74
2022/03/08 07:34:07;;;;;;;72.47;38.60;;;;;;;2.62;100.00;101325.78;4905009;29;20036;-75
2022/03/08 07:36:53;;;;;;;79.25;39.95;;;;;;;2.71;100.00;101327.72;4893387;29;20036;-74
2022/03/08 07:39:39;;;;;;;70.72;38.17;;;;;;;2.69;100.00;101326.81;4911445;29;20036;-75
2022/03/08 07:42:27;;;;;;;74.00;40.00;;;;;;;3.11;100.00;101325.19;4903002;29;20037;-75
2022/03/08 07:45:13;;;;;;;70.20;37.25;;;;;;;2.75;100.00;101317.47;4902054;29;20100;-75
2022/03/08 07:47:59;;;;;;;77.32;40.13;;;;;;;2.55;100.00;101317.84;4902588;29;20036;-76
2022/03/08 07:50:45;;;;;;;78.68;40.08;;;;;;;2.00;100.00;101309.53;4902626;29;20025;-77
2022/03/08 07:53:31;;;;;;;80.82;39.72;;;;;;;2.11;100.00;101311.56;4901912;29;20036;-76
2022/03/08 07:56:17;;;;;;;81.53;42.05;;;;;;;2.30;100.00;101316.38;4901893;29;20084;-74
2022/03/08 07:59:02;;;;;;;81.63;40.80;;;;;;;2.46;100.00;101321.09;4903954;29;20041;-76
2022/03/08 08:01:48;;;;;;;74.55;40.60;;;;;;;2.64;100.00;101308.59;4902164;29;20060;-75
2022/03/08 08:04:34;;;;;;;72.00;38.78;;;;;;;2.34;100.00;101310.44;4903680;29;20123;-74
2022/03/08 08:07:20;;;;;;;76.53;40.78;;;;;;;2.42;100.00;101310.63;4902196;29;20101;-74
2022/03/08 08:10:06;;;;;;;73.13;39.80;;;;;;;2.50;100.00;101310.00;4889031;29;20042;-74
2022/03/08 08:12:52;;;;;;;72.65;38.92;;;;;;;2.54;100.00;101308.34;4887993;29;20039;-74
2022/03/08 08:15:39;;;;;;;76.57;41.33;;;;;;;2.99;100.00;101311.97;4903279;29;20024;-77
2022/03/08 08:18:25;;;;;;;70.93;39.65;;;;;;;2.90;100.00;101307.47;4901503;29;20033;-74
2022/03/08 08:21:11;;;;;;;70.72;37.90;;;;;;;2.85;100.00;101303.91;4902870;29;20052;-75
2022/03/08 08:23:57;;;;;;;67.18;37.20;;;;;;;3.16;100.00;101302.88;4902471;29;20040;-74
2022/03/08 08:26:43;;;;;;;66.13;38.30;;;;;;;3.41;100.00;101292.16;4889302;29;20029;-76
2022/03/08 08:33:15;;;;;;;68.13;37.85;;;;;;;3.33;100.00;101302.38;4903227;29;20043;-74
2022/03/08 08:36:01;;;;;;;67.38;38.13;;;;;;;2.90;100.00;101304.03;4903181;29;20374;-74
2022/03/08 08:38:47;;;;;;;66.60;37.38;;;;;;;2.28;100.00;101307.69;4902210;29;20028;-75
2022/03/08 08:41:33;;;;;;;73.63;40.15;;;;;;;2.83;100.00;101309.88;4900419;29;20028;-76
2022/03/08 08:44:19;;;;;;;73.68;39.00;;;;;;;2.65;100.00;101301.72;4888266;29;20028;-75
2022/03/08 08:47:04;;;;;;;62.65;36.85;;;;;;;2.74;100.00;101304.50;4900824;29;20316;-75
2022/03/08 08:49:50;;;;;;;65.65;38.15;;;;;;;2.80;100.00;101300.34;4901467;29;20127;-75
2022/03/08 08:52:36;;;;;;;70.75;39.22;;;;;;;3.02;100.00;101304.28;4902188;29;20450;-76
2022/03/08 08:55:23;;;;;;;68.35;37.88;;;;;;;3.26;100.00;101297.91;4900781;29;20028;-75
2022/03/08 08:58:09;;;;;;;61.63;35.38;;;;;;;3.07;100.00;101310.44;4901856;29;20044;-76
2022/03/08 09:00:55;;;;;;;64.15;37.40;;;;;;;3.14;100.00;101308.00;4887430;29;20489;-76
2022/03/08 09:03:41;;;;;;;67.05;36.90;;;;;;;2.94;100.00;101308.44;4887196;29;20449;-76
2022/03/08 09:06:26;;;;;;;66.13;36.03;;;;;;;2.76;100.00;101298.53;4900743;29;20120;-75
2022/03/08 09:09:12;;;;;;;58.72;35.03;;;;;;;3.27;100.00;101299.69;4900115;29;20020;-75
2022/03/08 09:11:58;;;;;;;67.40;37.42;;;;;;;3.38;100.00;101299.91;4900372;29;20099;-74
2022/03/08 09:14:44;;;;;;;63.00;36.10;;;;;;;3.14;100.00;101302.81;4900762;29;20554;-74
2022/03/08 09:21:12;;;;;;;68.97;39.15;;;;;;;3.90;100.00;101300.94;4903393;29;20036;-76
2022/03/08 09:23:58;;;;;;;70.80;40.72;;;;;;;3.79;100.00;101305.06;4900341;29;20067;-75
2022/03/08 09:26:43;;;;;;;60.50;34.13;;;;;;;3.44;100.00;101307.78;4900886;29;20456;-77
2022/03/08 09:29:29;;;;;;;60.00;34.58;;;;;;;3.87;100.00;101307.78;4900056;29;20458;-78
2022/03/08 09:32:15;;;;;;;57.53;34.33;;;;;;;3.11;100.00;101301.91;4901158;29;20039;-77
2022/03/08 09:35:01;;;;;;;63.03;35.90;;;;;;;3.86;100.00;101301.72;4900147;29;20044;-76
2022/03/08 09:37:46;;;;;;;62.88;34.60;;;;;;;3.53;100.00;101298.47;4900378;29;20028;-75
2022/03/08 09:40:32;;;;;;;64.22;34.70;;;;;;;3.65;100.00;101293.53;4901290;29;20457;-74
2022/03/08 09:43:18;;;;;;;53.35;32.75;;;;;;;3.90;100.00;101294.88;4899647;29;20075;-75
2022/03/08 09:46:05;;;;;;;54.40;32.03;;;;;;;3.76;100.00;101305.00;4886031;29;20047;-77
2022/03/08 09:48:51;;;;;;;56.60;32.47;;;;;;;3.66;100.00;101299.59;4899832;29;20037;-75
2022/03/08 09:51:37;;;;;;;58.00;33.28;;;;;;;3.82;100.00;101305.09;4901124;29;20035;-75
2022/03/08 09:54:24;;;;;;;59.42;33.58;;;;;;;3.73;100.00;101297.16;4886408;29;20048;-75
2022/03/08 09:57:11;;;;;;;59.45;34.50;;;;;;;3.05;100.00;101313.00;4899739;29;20068;-75
2022/03/08 10:00:00;;;;;;;58.22;34.03;;;;;;;3.52;100.00;101309.69;4900043;29;20032;-74
2022/03/08 10:02:49;;;;;;;57.92;34.90;;;;;;;3.74;100.00;101303.22;4903721;29;20025;-74
2022/03/08 10:05:39;;;;;;;56.30;33.58;;;;;;;3.57;100.00;101307.19;4899449;29;20024;-75
2022/03/08 10:08:27;;;;;;;58.45;34.22;;;;;;;3.64;100.00;101307.34;4874401;29;20044;-73
2022/03/08 10:11:14;;;;;;;71.72;41.58;;;;;;;3.79;100.00;101306.75;4899730;29;20036;-75
2022/03/08 10:14:00;;;;;;;58.42;33.00;;;;;;;3.40;100.00;101309.44;4886309;29;20295;-74
2022/03/08 10:16:49;;;;;;;59.08;34.58;;;;;;;3.49;100.00;101306.16;4901259;29;20142;-75
2022/03/08 10:19:48;;;;;;;56.33;33.95;;;;;;;4.49;100.00;101310.63;4904900;29;20373;-75
2022/03/08 10:22:38;;;;;;;55.90;33.20;;;;;;;4.18;100.00;101313.53;4892290;29;20033;-74
2022/03/08 10:25:26;;;;;;;59.15;34.00;;;;;;;3.81;100.00;101305.94;4906697;29;20046;-75
2022/03/08 10:28:12;;;;;;;62.53;35.72;;;;;;;4.36;100.00;101307.81;4906169;29;20445;-74
2022/03/08 10:30:57;;;;;;;51.40;32.25;;;;;;;4.38;100.00;101303.53;4895864;29;20172;-75
2022/03/08 10:33:45;;;;;;;51.70;32.13;;;;;;;4.52;100.00;101307.22;4896187;29;20370;-74
2022/03/08 10:36:32;;;;;;;48.83;29.17;;;;;;;4.20;100.00;101308.38;4896485;29;20025;-75
2022/03/08 10:39:23;;;;;;;52.58;32.03;;;;;;;4.30;100.00;101311.16;4906301;29;20039;-74
2022/03/08 10:42:26;;;;;;;48.65;30.65;;;;;;;4.27;100.00;101311.09;4906617;29;20032;-75
2022/03/08 10:45:15;;;;;;;50.72;30.67;;;;;;;4.44;100.00;101306.22;4892138;29;20028;-74
2022/03/08 10:48:06;;;;;;;49.65;30.27;;;;;;;4.79;100.00;101312.84;4904953;29;20450;-76
2022/03/08 10:50:54;;;;;;;47.70;28.67;;;;;;;4.80;100.00;101311.97;4892469;29;20033;-75
2022/03/08 10:53:45;;;;;;;47.42;28.90;;;;;;;4.15;100.00;101313.47;4893348;29;20342;-74
2022/03/08 10:56:42;;;;;;;44.50;27.13;;;;;;;4.14;100.00;101314.34;4893482;29;20033;-75
2022/03/08 10:59:29;;;;;;;50.70;29.77;;;;;;;4.67;100.00;101308.31;4905789;29;20104;-73
2022/03/08 11:05:10;;;;;;;51.63;29.30;;;;;;;4.04;100.00;101309.84;5154959;23;20063;-74
2022/03/08 11:07:57;;;;;;;48.35;29.02;;;;;;;4.27;100.00;101303.31;4924239;29;20322;-74
2022/03/08 11:10:44;;;;;;;44.22;27.17;;;;;;;4.22;100.00;101301.53;4910698;29;20044;-75
2022/03/08 11:13:30;;;;;;;40.85;25.63;;;;;;;4.22;100.00;101293.75;4899906;29;20039;-74
2022/03/08 11:16:17;;;;;;;45.30;27.55;;;;;;;4.99;100.00;101298.44;4904952;29;20390;-74
2022/03/08 11:19:05;;;;;;;44.60;27.77;;;;;;;5.10;100.00;101295.13;4893014;29;20415;-77
2022/03/08 11:21:51;;;;;;;42.40;27.25;;;;;;;4.93;100.00;101295.72;4892286;29;20130;-74
2022/03/08 11:24:37;;;;;;;43.50;26.65;;;;;;;4.90;100.00;101304.34;4905735;29;20029;-75
2022/03/08 11:27:23;;;;;;;43.97;27.30;;;;;;;5.48;100.00;101299.06;4892190;29;20043;-74
2022/03/08 11:30:13;;;;;;;41.15;25.27;;;;;;;5.42;100.00;101295.53;4904507;29;20362;-75
2022/03/08 11:33:05;;;;;;;42.53;25.83;;;;;;;5.18;100.00;101303.00;4889226;29;20047;-75
2022/03/08 11:35:57;;;;;;;41.00;25.55;;;;;;;4.76;100.00;101295.50;4901910;29;20029;-75
2022/03/08 11:38:43;;;;;;;38.05;24.60;;;;;;;4.45;100.00;101297.56;4903244;29;20044;-74
2022/03/08 11:41:29;;;;;;;42.80;24.92;;;;;;;4.73;100.00;101294.56;4901886;29;20060;-75
2022/03/08 11:44:23;;;;;;;40.90;25.13;;;;;;;4.84;100.00;101295.59;4901346;29;20028;-74
2022/03/08 11:47:15;;;;;;;39.85;24.58;;;;;;;5.17;100.00;101298.66;4901878;29;20025;-73
2022/03/08 11:50:02;;;;;;;40.40;24.13;;;;;;;4.88;100.00;101300.88;4889561;29;20025;-74
2022/03/08 11:53:12;;;;;;;45.83;27.27;;;;;;;5.02;100.00;101293.25;4901318;29;20069;-75
2022/03/08 11:55:58;;;;;;;40.33;25.15;;;;;;;4.68;100.00;101304.88;4903410;29;20454;-75
2022/03/08 11:58:47;;;;;;;39.00;24.42;;;;;;;5.13;100.00;101315.94;4902643;29;20427;-75
2022/03/08 12:01:36;;;;;;;43.28;26.52;;;;;;;4.99;100.00;101308.81;4902689;29;20056;-76
2022/03/08 12:04:22;;;;;;;42.55;26.17;;;;;;;5.37;100.00;101312.78;4902760;29;20480;-76
2022/03/08 12:07:24;;;;;;;39.67;25.42;;;;;;;5.11;100.00;101303.78;4902332;29;20039;-70
2022/03/08 12:10:57;;;;;;;44.25;25.33;;;;;;;4.57;100.00;101309.03;4901845;29;20040;-74
2022/03/08 12:13:47;;;;;;;40.63;25.38;;;;;;;4.79;100.00;101305.91;4902663;29;20040;-74
2022/03/08 12:16:33;;;;;;;42.83;25.77;;;;;;;4.94;100.00;101300.94;4902937;29;20028;-74
2022/03/08 12:19:32;;;;;;;42.75;26.10;;;;;;;4.73;100.00;101298.03;4888173;29;20025;-73
2022/03/08 12:22:20;;;;;;;43.20;27.30;;;;;;;4.99;100.00;101298.44;4901381;29;20454;-73
2022/03/08 12:25:14;;;;;;;43.63;27.27;;;;;;;5.09;100.00;101293.38;4900829;29;20056;-73
2022/03/08 12:27:59;;;;;;;47.70;28.42;;;;;;;5.03;100.00;101295.88;4900866;29;20032;-72
2022/03/08 12:30:48;;;;;;;48.35;29.80;;;;;;;5.23;100.00;101302.22;4902115;29;20033;-73
2022/03/08 12:44:02;;;;;;;43.40;27.40;;;;;;;5.40;100.00;101307.63;5839633;23;21600;-74
2022/03/08 12:46:48;;;;;;;52.33;32.10;;;;;;;5.18;100.00;101308.19;4919845;29;20422;-76
2022/03/08 12:49:35;;;;;;;43.80;27.23;;;;;;;5.46;100.00;101310.28;4918961;29;20116;-74
2022/03/08 12:52:21;;;;;;;45.15;27.08;;;;;;;5.27;100.00;101310.94;4904372;29;20032;-74
2022/03/08 12:55:18;;;;;;;43.85;26.17;;;;;;;5.54;100.00;101310.41;4900461;29;20431;-75
2022/03/08 12:58:09;;;;;;;40.08;24.85;;;;;;;5.47;100.00;101306.88;4888285;29;20028;-73
2022/03/08 13:01:06;;;;;;;42.50;26.13;;;;;;;5.16;100.00;101312.50;4900250;29;20033;-74
2022/03/08 13:03:52;;;;;;;39.80;25.60;;;;;;;5.81;100.00;101309.03;4901025;29;20446;-76
2022/03/08 13:06:38;;;;;;;46.78;30.00;;;;;;;5.24;100.00;101308.28;4901441;29;20035;-75
2022/03/08 13:09:23;;;;;;;45.15;28.60;;;;;;;5.58;100.00;101307.84;4900550;29;20024;-74
2022/03/08 13:12:17;;;;;;;40.92;26.30;;;;;;;5.62;100.00;101300.97;4899548;29;20112;-74
2022/03/08 13:15:10;;;;;;;41.20;25.35;;;;;;;6.22;100.00;101312.06;4901616;29;20093;-74
2022/03/08 13:17:58;;;;;;;44.83;28.23;;;;;;;5.67;100.00;101301.91;4901546;29;20025;-73
2022/03/08 13:20:43;;;;;;;76.18;47.17;;;;;;;5.87;100.00;101298.69;4887253;29;20036;-73
2022/03/08 13:23:35;;;;;;;37.30;23.80;;;;;;;5.60;100.00;101294.88;4901459;29;20074;-73
2022/03/08 13:29:37;;;;;;;37.35;23.80;;;;;;;6.44;100.00;101295.78;4898283;29;20067;-74
2022/03/08 13:32:23;;;;;;;39.25;23.60;;;;;;;6.18;100.00;101295.53;4902636;29;20096;-74
2022/03/08 13:35:10;;;;;;;45.55;28.05;;;;;;;5.56;100.00;101290.50;4899959;29;20052;-74
2022/03/08 13:37:55;;;;;;;40.70;24.17;;;;;;;5.43;100.00;101290.34;4900605;29;20028;-74
2022/03/08 13:40:42;;;;;;;38.33;23.88;;;;;;;5.99;100.00;101293.59;4901176;29;20118;-74
2022/03/08 13:43:29;;;;;;;42.83;26.65;;;;;;;6.27;100.00;101292.16;4899228;29;20032;-73
2022/03/08 13:46:19;;;;;;;39.90;25.20;;;;;;;6.09;100.00;101287.66;4901074;29;20465;-74
2022/03/08 13:49:10;;;;;;;47.47;29.80;;;;;;;5.65;100.00;101288.00;4899115;29;20029;-73
2022/03/08 13:52:01;;;;;;;42.58;25.70;;;;;;;6.43;100.00;101297.50;4899929;29;20063;-73
2022/03/08 13:54:47;;;;;;;39.03;24.45;;;;;;;6.06;100.00;101291.97;4899817;29;20063;-74
2022/03/08 13:57:33;;;;;;;38.55;24.38;;;;;;;6.38;100.00;101285.31;4899805;29;20021;-74
2022/03/08 14:00:19;;;;;;;39.17;24.02;;;;;;;6.48;100.00;101284.53;4887047;29;20032;-73
2022/03/08 14:03:07;;;;;;;39.58;25.25;;;;;;;6.68;100.00;101294.25;4900252;29;20033;-74
2022/03/08 14:05:56;;;;;;;38.38;23.63;;;;;;;6.37;100.00;101292.25;4900702;29;20040;-72
2022/03/08 14:08:43;;;;;;;37.58;22.38;;;;;;;6.16;100.00;101281.66;4900911;29;20112;-73
2022/03/08 14:11:29;;;;;;;37.85;23.02;;;;;;;6.01;100.00;101286.69;4899562;29;20036;-73
2022/03/08 14:14:21;;;;;;;43.05;25.45;;;;;;;5.27;100.00;101291.00;4898867;29;20477;-75
2022/03/08 14:17:07;;;;;;;37.28;23.70;;;;;;;4.90;100.00;101287.88;4900966;29;20032;-75
2022/03/08 14:19:53;;;;;;;42.17;25.50;;;;;;;5.74;100.00;101288.97;4900008;29;20370;-75
2022/03/08 14:23:08;;;;;;;42.38;24.98;;;;;;;5.74;100.00;101282.91;4887668;29;20035;-74
2022/03/08 14:26:09;;;;;;;37.05;24.15;;;;;;;5.94;100.00;101273.63;4900742;29;20033;-74
2022/03/08 14:29:01;;;;;;;40.95;25.50;;;;;;;6.23;100.00;101274.78;4899457;29;20438;-74
2022/03/08 14:31:49;;;;;;;42.20;23.90;;;;;;;6.16;100.00;101279.06;4899783;29;20059;-75
2022/03/08 14:34:37;;;;;;;37.15;23.02;;;;;;;5.94;100.00;101265.84;4899569;29;20366;-74
2022/03/08 15:04:07;;;;;;;39.55;23.63;;;;;;;5.60;100.00;101274.09;5420291;23;20048;-76
2022/03/08 15:06:53;;;;;;;41.60;25.10;;;;;;;5.62;100.00;101269.78;4941038;29;20044;-75
2022/03/08 15:09:38;;;;;;;42.47;24.73;;;;;;;5.63;100.00;101275.00;4926503;29;20039;-74
2022/03/08 15:12:24;;;;;;;39.28;24.48;;;;;;;5.65;100.00;101275.88;4925186;29;20027;-75
2022/03/08 15:15:11;;;;;;;40.78;25.25;;;;;;;5.90;100.00;101277.06;4908562;29;20066;-75
2022/03/08 15:17:57;;;;;;;40.67;24.60;;;;;;;5.62;100.00;101277.59;4907995;29;20028;-77
2022/03/08 15:20:43;;;;;;;43.55;26.17;;;;;;;5.99;100.00;101279.75;4923098;29;20043;-76
2022/03/08 15:23:29;;;;;;;41.88;25.00;;;;;;;5.70;100.00;101273.34;4922525;29;20115;-76
2022/03/08 15:26:15;;;;;;;44.85;27.98;;;;;;;5.87;100.00;101280.47;4921207;29;20051;-75
2022/03/08 15:29:02;;;;;;;35.28;22.73;;;;;;;5.59;100.00;101280.16;4923537;29;20028;-75
2022/03/08 15:31:49;;;;;;;34.92;22.48;;;;;;;6.03;100.00;101286.72;4909151;29;20028;-75
2022/03/08 15:34:35;;;;;;;35.38;21.98;;;;;;;5.87;100.00;101285.69;4921299;29;20028;-75
2022/03/08 15:37:21;;;;;;;34.90;22.27;;;;;;;6.05;100.00;101298.00;4921343;29;20029;-75
2022/03/08 15:40:08;;;;;;;36.03;22.08;;;;;;;5.77;100.00;101296.81;4921644;29;20052;-77
2022/03/08 15:42:53;;;;;;;38.38;23.90;;;;;;;5.71;100.00;101291.56;4922101;29;20036;-73
2022/03/08 15:45:43;;;;;;;35.60;21.17;;;;;;;5.16;100.00;101292.59;4921857;29;20203;-72
2022/03/08 15:48:29;;;;;;;36.28;21.83;;;;;;;4.95;100.00;101292.28;4920680;29;20039;-73
2022/03/08 15:51:17;;;;;;;35.70;22.40;;;;;;;5.31;100.00;101279.81;4922185;29;20437;-74
2022/03/08 15:54:02;;;;;;;38.58;23.95;;;;;;;5.02;100.00;101282.88;4921633;29;20038;-73
2022/03/08 15:56:48;;;;;;;37.72;24.27;;;;;;;5.02;100.00;101290.66;4921216;29;20122;-73
2022/03/08 15:59:34;;;;;;;40.97;24.88;;;;;;;5.27;100.00;101288.41;4921677;29;20040;-74
2022/03/08 16:02:23;;;;;;;41.17;25.27;;;;;;;5.45;100.00;101287.78;4921400;29;20098;-71
2022/03/08 16:05:09;;;;;;;40.20;24.48;;;;;;;5.15;100.00;101296.03;4919841;29;20473;-74
2022/03/08 16:07:55;;;;;;;41.45;26.15;;;;;;;4.46;100.00;101300.19;4921956;29;20088;-73
2022/03/08 16:10:41;;;;;;;41.25;26.08;;;;;;;4.46;100.00;101301.94;4920901;29;20038;-73
2022/03/08 16:13:27;;;;;;;45.92;27.65;;;;;;;4.72;100.00;101301.50;4920546;29;20365;-73
2022/03/08 16:16:13;;;;;;;48.80;27.80;;;;;;;5.11;100.00;101302.03;4921536;29;20071;-74
2022/03/08 16:18:58;;;;;;;47.65;28.83;;;;;;;4.48;100.00;101298.50;4920680;29;20028;-73
2022/03/08 16:21:44;;;;;;;52.97;30.17;;;;;;;4.65;100.00;101306.53;4920594;29;20128;-74
2022/03/08 16:24:30;;;;;;;55.13;31.23;;;;;;;4.79;100.00;101311.09;4919823;29;20032;-74
2022/03/08 16:27:16;;;;;;;51.55;29.92;;;;;;;4.79;100.00;101299.84;4921235;29;20501;-72
2022/03/08 16:30:04;;;;;;;54.78;30.38;;;;;;;5.03;100.00;101305.41;4920647;29;20168;-72
2022/03/08 16:32:50;;;;;;;59.63;32.85;;;;;;;4.85;100.00;101310.31;4907979;29;20059;-73
2022/03/08 16:35:36;;;;;;;59.83;32.70;;;;;;;5.04;100.00;101312.34;4907297;29;20051;-71
2022/03/08 16:38:22;;;;;;;60.45;32.78;;;;;;;4.97;100.00;101311.38;4920944;29;20028;-73
2022/03/08 16:41:09;;;;;;;52.78;30.52;;;;;;;4.61;100.00;101315.13;4920540;29;20039;-73
2022/03/08 16:43:55;;;;;;;52.03;31.50;;;;;;;4.77;100.00;101315.41;4919954;29;20052;-73
2022/03/08 16:46:41;;;;;;;50.70;30.27;;;;;;;4.83;100.00;101320.66;4919498;29;20119;-72
2022/03/08 16:49:27;;;;;;;53.03;30.33;;;;;;;4.95;100.00;101320.00;4920347;29;20433;-73
2022/03/08 16:52:13;;;;;;;57.00;32.35;;;;;;;4.75;100.00;101326.63;4923975;29;20035;-73
2022/03/08 16:54:58;;;;;;;53.50;30.83;;;;;;;4.74;100.00;101320.53;4905976;29;20032;-73
2022/03/08 16:57:44;;;;;;;53.10;30.70;;;;;;;4.58;100.00;101326.34;4919786;29;20024;-74
2022/03/08 17:00:30;;;;;;;51.22;30.00;;;;;;;4.45;100.00;101326.09;4920147;29;20122;-74
2022/03/08 17:03:16;;;;;;;53.30;31.17;;;;;;;4.71;100.00;101332.59;4920714;29;20083;-75
2022/03/08 17:06:02;;;;;;;54.55;31.15;;;;;;;4.76;100.00;101333.53;4922623;29;20051;-75
2022/03/08 17:08:47;;;;;;;52.53;31.55;;;;;;;4.68;100.00;101346.41;4920610;29;20028;-74
2022/03/08 17:11:34;;;;;;;50.28;30.67;;;;;;;4.66;100.00;101345.50;4920237;29;20036;-74
2022/03/08 17:14:20;;;;;;;50.97;29.40;;;;;;;4.54;100.00;101339.22;4918994;29;20024;-74